Time;durP1;ratioP1;P1;durP2;ratioP2;P2;SDS_P1;SDS_P2;PMS_P1;PMS_P2;Temp;Humidity;BMP_temperature;BMP_pressure;BME280_temperature;BME280_humidity;BME280_pressure;Samples;Min_cycle;Max_cycle;Signal;HPM_P1;HPM_P2
2021/04/10 00:01:26;;;;;;;42.72;21.25;;;;;;;6.91;89.18;98932.91;5015438;28;20062;-64
2021/04/10 00:03:51;;;;;;;31.55;18.17;;;;;;;6.90;89.31;98953.41;5015968;28;20056;-64
2021/04/10 00:06:17;;;;;;;33.90;18.77;;;;;;;6.91;89.49;98938.25;5015497;28;20104;-64
2021/04/10 00:08:42;;;;;;;35.88;21.65;;;;;;;6.69;90.21;98925.44;5014425;28;20030;-65
2021/04/10 00:11:07;;;;;;;46.00;24.75;;;;;;;6.64;90.32;98933.28;5015048;28;20037;-64
2021/04/10 00:13:33;;;;;;;39.30;22.77;;;;;;;6.73;90.53;98938.28;5015727;28;20033;-64
2021/04/10 00:15:58;;;;;;;43.35;22.00;;;;;;;6.75;89.45;98933.56;5014038;28;20037;-64
2021/04/10 00:18:24;;;;;;;34.58;20.80;;;;;;;6.74;89.08;98926.59;5014495;28;20037;-66
2021/04/10 00:20:49;;;;;;;33.92;20.13;;;;;;;6.69;88.75;98927.28;5015300;28;20139;-65
2021/04/10 00:23:15;;;;;;;39.13;22.55;;;;;;;6.59;89.48;98938.47;5014319;28;20026;-64
2021/04/10 00:25:40;;;;;;;39.08;21.75;;;;;;;6.68;88.88;98945.09;5013879;28;20046;-64
2021/04/10 00:28:05;;;;;;;39.63;21.13;;;;;;;6.76;89.24;98932.50;5015662;28;20072;-64
2021/04/10 00:30:31;;;;;;;35.40;20.52;;;;;;;6.86;88.67;98935.44;5015043;28;20088;-64
2021/04/10 00:32:56;;;;;;;33.40;20.42;;;;;;;6.88;88.95;98944.03;5015390;28;20025;-63
2021/04/10 00:35:22;;;;;;;33.47;19.95;;;;;;;6.93;89.15;98941.50;5014803;28;20045;-63
2021/04/10 00:37:47;;;;;;;39.30;22.30;;;;;;;6.84;90.45;98937.50;5015284;28;20034;-63
2021/04/10 00:40:13;;;;;;;36.17;21.63;;;;;;;6.80;90.16;98937.16;5015013;28;20420;-63
2021/04/10 00:42:39;;;;;;;34.50;20.30;;;;;;;6.84;90.36;98926.84;5015218;28;20468;-63
2021/04/10 00:45:05;;;;;;;36.67;21.67;;;;;;;6.83;89.91;98925.25;5014757;28;20382;-63
2021/04/10 00:47:30;;;;;;;36.05;22.83;;;;;;;6.73;90.11;98920.44;5013421;28;20499;-64
2021/04/10 00:49:56;;;;;;;35.78;23.58;;;;;;;6.69;90.44;98924.63;5014399;28;20033;-64
2021/04/10 00:52:21;;;;;;;33.85;23.75;;;;;;;6.72;90.51;98918.84;5014571;28;20045;-64
2021/04/10 00:54:47;;;;;;;32.67;21.38;;;;;;;6.78;90.58;98920.59;5013809;28;20026;-63
2021/04/10 00:57:13;;;;;;;39.22;23.15;;;;;;;6.80;90.31;98933.69;5013212;28;20045;-64
2021/04/10 00:59:38;;;;;;;36.25;22.45;;;;;;;6.77;89.64;98921.63;4997476;28;20412;-63
2021/04/10 01:02:04;;;;;;;34.42;21.42;;;;;;;6.79;90.19;98918.72;5014430;28;20042;-63
2021/04/10 01:04:30;;;;;;;37.65;21.63;;;;;;;6.77;89.73;98915.50;5013587;28;20057;-63
2021/04/10 01:06:55;;;;;;;33.55;21.08;;;;;;;6.83;88.94;98911.91;5014429;28;20050;-63
2021/04/10 01:09:21;;;;;;;36.42;21.00;;;;;;;6.75;88.88;98909.59;5014850;28;20034;-63
2021/04/10 01:12:20;;;;;;;35.85;21.77;;;;;;;6.68;89.09;98902.47;5013864;28;20054;-63
2021/04/10 01:15:06;;;;;;;37.13;21.63;;;;;;;6.48;88.82;98897.41;5013183;28;20135;-63
2021/04/10 01:17:36;;;;;;;37.33;22.33;;;;;;;6.48;88.96;98901.91;5013045;28;20050;-63
2021/04/10 01:20:32;;;;;;;32.70;21.52;;;;;;;6.49;89.42;98900.91;4996655;28;20088;-64
2021/04/10 01:23:19;;;;;;;38.63;20.98;;;;;;;6.55;88.94;98892.00;5014074;28;20457;-64
2021/04/10 01:26:00;;;;;;;37.72;21.35;;;;;;;6.51;88.90;98890.81;5013861;28;20038;-63
2021/04/10 01:29:03;;;;;;;35.67;21.65;;;;;;;6.53;89.27;98891.41;5014060;28;20037;-64
2021/04/10 01:31:42;;;;;;;33.67;22.15;;;;;;;6.47;89.39;98887.81;5013573;28;20045;-63
2021/04/10 01:34:31;;;;;;;35.95;23.17;;;;;;;6.45;88.83;98895.19;4997680;28;20168;-63
2021/04/10 01:37:06;;;;;;;33.53;21.85;;;;;;;6.63;87.27;98897.00;5011885;28;20056;-64
2021/04/10 01:39:32;;;;;;;34.38;22.50;;;;;;;6.56;88.00;98898.94;4992675;28;20035;-63
2021/04/10 01:41:57;;;;;;;41.55;24.50;;;;;;;6.45;89.32;98902.38;4993743;28;20053;-63
2021/04/10 01:44:22;;;;;;;36.42;23.05;;;;;;;6.53;87.95;98907.38;4992838;28;20034;-63
2021/04/10 01:46:48;;;;;;;36.35;23.25;;;;;;;6.50;87.91;98905.19;4976132;28;20390;-63
2021/04/10 01:49:13;;;;;;;41.03;24.30;;;;;;;6.47;88.42;98909.09;4992990;28;20034;-63
2021/04/10 01:51:39;;;;;;;34.10;23.83;;;;;;;6.46;88.39;98909.31;4993643;28;20349;-63
2021/04/10 01:54:04;;;;;;;39.97;22.73;;;;;;;6.47;87.61;98910.97;4976660;28;20477;-63
2021/04/10 01:56:30;;;;;;;34.05;22.20;;;;;;;6.51;87.64;98912.13;4992255;28;20304;-63
2021/04/10 01:58:56;;;;;;;37.17;23.17;;;;;;;6.48;87.91;98910.72;5008641;28;20037;-63
2021/04/10 02:01:21;;;;;;;35.63;23.23;;;;;;;6.54;87.82;98917.03;4975913;28;20045;-63
2021/04/10 02:03:47;;;;;;;37.42;23.33;;;;;;;6.44;89.08;98901.56;4976227;28;20045;-64
2021/04/10 02:06:13;;;;;;;39.78;25.00;;;;;;;6.44;88.84;98903.38;4992234;28;20042;-63
2021/04/10 02:08:42;;;;;;;37.78;23.95;;;;;;;6.40;88.59;98904.88;4976577;28;20394;-64
2021/04/10 02:11:08;;;;;;;39.78;24.63;;;;;;;6.37;88.79;98908.00;4991857;28;20129;-64
2021/04/10 02:13:34;;;;;;;36.95;22.52;;;;;;;6.47;88.88;98908.28;4992400;28;20037;-63
2021/04/10 02:15:59;;;;;;;41.55;24.35;;;;;;;6.49;88.76;98898.25;4993441;28;20038;-63
2021/04/10 02:18:25;;;;;;;38.92;24.02;;;;;;;6.48;88.43;98904.59;4976218;28;20030;-64
2021/04/10 02:20:50;;;;;;;42.42;25.17;;;;;;;6.53;88.15;98903.91;4991882;28;20441;-63
2021/04/10 02:23:18;;;;;;;42.42;25.52;;;;;;;6.44;87.87;98896.25;4992389;28;20045;-64
2021/04/10 02:25:44;;;;;;;43.00;25.42;;;;;;;6.31;88.91;98887.59;4991817;28;20401;-63
2021/04/10 02:28:09;;;;;;;46.92;27.45;;;;;;;6.40;88.96;98899.56;4992303;28;20027;-63
2021/04/10 02:30:35;;;;;;;43.75;28.50;;;;;;;6.31;89.21;98895.56;4992936;28;20547;-64
2021/04/10 02:33:02;;;;;;;44.20;27.75;;;;;;;6.30;89.02;98899.28;4992075;28;20030;-63
2021/04/10 02:35:36;;;;;;;47.88;29.40;;;;;;;6.19;89.45;98899.00;4992988;28;20073;-63
2021/04/10 02:38:02;;;;;;;48.70;28.30;;;;;;;6.10;89.71;98895.00;4993318;28;20034;-63
2021/04/10 02:40:30;;;;;;;57.03;32.55;;;;;;;6.02;90.34;98904.06;4991517;28;20049;-64
2021/04/10 02:42:55;;;;;;;54.10;32.20;;;;;;;6.08;90.43;98901.56;4991929;28;20042;-63
2021/04/10 02:45:24;;;;;;;51.03;30.10;;;;;;;6.05;90.11;98892.19;4991534;28;20053;-63
2021/04/10 02:47:49;;;;;;;39.78;25.67;;;;;;;6.03;89.67;98905.69;4993223;28;20083;-64
2021/04/10 02:50:16;;;;;;;55.67;30.55;;;;;;;5.99;90.45;98906.34;4975368;28;20027;-63
2021/04/10 02:52:43;;;;;;;50.60;29.02;;;;;;;6.02;89.88;98912.06;4991688;28;20022;-63
2021/04/10 02:55:10;;;;;;;47.33;27.00;;;;;;;6.01;90.09;98901.63;4959227;28;20023;-63
2021/04/10 02:57:35;;;;;;;50.47;29.77;;;;;;;6.03;90.14;98904.88;4991749;28;20096;-63
2021/04/10 03:00:03;;;;;;;53.03;31.40;;;;;;;6.00;90.07;98913.31;4992781;28;20389;-63
2021/04/10 03:02:29;;;;;;;44.78;26.45;;;;;;;6.08;89.93;98918.34;4993025;28;20089;-64
2021/04/10 03:04:54;;;;;;;46.33;28.13;;;;;;;6.07;89.55;98911.41;4975722;28;20030;-63
2021/04/10 03:07:20;;;;;;;43.17;27.55;;;;;;;6.12;89.85;98914.22;4991208;28;20396;-63
2021/04/10 03:09:46;;;;;;;45.05;26.30;;;;;;;6.20;89.87;98916.56;5007912;28;20114;-63
2021/04/10 03:12:16;;;;;;;50.20;26.35;;;;;;;6.28;89.60;98919.97;4994114;28;20057;-63
2021/04/10 03:14:41;;;;;;;39.58;25.23;;;;;;;6.24;90.56;98928.41;4995742;28;20027;-63
2021/04/10 03:17:08;;;;;;;43.85;25.33;;;;;;;6.33;90.04;98925.44;5011540;28;20052;-63
2021/04/10 03:19:34;;;;;;;45.80;28.08;;;;;;;6.30;89.14;98920.56;4979430;28;20061;-64
2021/04/10 03:21:59;;;;;;;47.90;25.83;;;;;;;6.26;89.89;98915.69;4996434;28;20038;-63
2021/04/10 03:24:25;;;;;;;44.38;25.30;;;;;;;6.31;89.61;98923.00;4996813;28;20038;-63
2021/04/10 03:26:50;;;;;;;44.35;25.55;;;;;;;6.28;89.37;98912.00;5011400;28;20449;-63
2021/04/10 03:29:16;;;;;;;42.60;25.58;;;;;;;6.14;89.93;98914.81;4995401;28;20034;-63
2021/04/10 03:31:41;;;;;;;44.40;26.33;;;;;;;6.22;89.69;98914.50;4996078;28;20493;-64
2021/04/10 03:34:07;;;;;;;46.63;27.35;;;;;;;6.21;90.59;98917.38;4995370;28;20073;-63
2021/04/10 03:36:32;;;;;;;43.75;26.13;;;;;;;6.29;90.45;98924.25;4994907;28;20050;-64
2021/04/10 03:38:58;;;;;;;47.28;26.02;;;;;;;6.30;89.88;98920.56;4995228;28;20092;-64
2021/04/10 03:41:23;;;;;;;41.63;26.20;;;;;;;6.22;89.78;98919.03;5010182;28;20115;-65
2021/04/10 03:43:49;;;;;;;49.88;27.33;;;;;;;6.22;89.63;98927.81;4998425;28;20113;-64
2021/04/10 03:46:14;;;;;;;46.80;28.58;;;;;;;6.05;90.20;98916.13;5015573;28;20101;-64
2021/04/10 03:48:40;;;;;;;52.20;29.20;;;;;;;6.04;90.74;98927.78;5015981;28;20026;-64
2021/04/10 03:51:05;;;;;;;50.90;29.52;;;;;;;6.13;90.59;98942.44;5015517;28;20049;-63
2021/04/10 03:53:31;;;;;;;62.92;32.17;;;;;;;6.13;91.44;98945.09;5014656;28;20045;-64
2021/04/10 03:55:56;;;;;;;56.40;31.25;;;;;;;5.99;91.70;98931.13;5014140;28;20064;-64
2021/04/10 03:58:22;;;;;;;65.15;34.70;;;;;;;5.97;92.33;98943.03;5015935;28;20030;-63
2021/04/10 04:00:47;;;;;;;62.72;33.65;;;;;;;6.00;92.01;98947.91;5015400;28;20037;-63
2021/04/10 04:03:12;;;;;;;61.58;34.35;;;;;;;6.07;92.44;98959.28;4998088;28;20056;-64
2021/04/10 04:05:38;;;;;;;55.05;30.35;;;;;;;6.13;91.97;98962.91;5013996;28;20045;-63
2021/04/10 04:08:03;;;;;;;51.88;31.40;;;;;;;5.97;92.14;98953.66;5015542;28;20029;-64
2021/04/10 04:10:29;;;;;;;70.45;34.28;;;;;;;5.95;92.20;98953.06;5015218;28;20046;-64
2021/04/10 04:12:54;;;;;;;58.55;32.10;;;;;;;5.99;92.47;98964.88;5015359;28;20121;-64
2021/04/10 04:15:20;;;;;;;55.83;31.48;;;;;;;6.02;92.41;98967.94;5015065;28;20049;-64
2021/04/10 04:17:45;;;;;;;50.72;29.75;;;;;;;6.01;91.73;98962.81;5014177;28;20046;-63
2021/04/10 04:20:11;;;;;;;49.70;28.92;;;;;;;5.97;91.42;98966.97;5014984;28;20464;-64
2021/04/10 04:22:36;;;;;;;53.00;29.02;;;;;;;6.08;91.25;98971.56;5014890;28;20384;-64
2021/04/10 04:25:02;;;;;;;47.90;29.20;;;;;;;6.08;90.83;98970.75;5015188;28;20076;-63
2021/04/10 04:27:28;;;;;;;48.55;27.10;;;;;;;6.02;91.43;98978.56;5015404;28;20022;-64
2021/04/10 04:29:54;;;;;;;56.45;28.92;;;;;;;6.09;91.24;98973.19;5015243;28;20021;-64
2021/04/10 04:32:22;;;;;;;47.78;28.70;;;;;;;6.00;91.63;98966.53;5014753;28;20065;-64
2021/04/10 04:34:48;;;;;;;48.83;26.75;;;;;;;5.97;91.72;98974.94;5015197;28;20029;-64
2021/04/10 04:37:13;;;;;;;54.78;30.27;;;;;;;5.88;91.77;98970.91;5014805;28;20053;-63
2021/04/10 04:39:38;;;;;;;56.80;30.98;;;;;;;5.88;91.51;98982.34;5015115;28;20323;-63
2021/04/10 04:42:04;;;;;;;55.80;29.55;;;;;;;5.92;91.33;98988.06;5013258;28;20057;-64
2021/04/10 04:44:29;;;;;;;53.65;29.52;;;;;;;5.98;90.69;98982.69;5015044;28;20033;-64
2021/04/10 04:46:55;;;;;;;52.03;28.90;;;;;;;5.97;90.80;98986.41;5014492;28;20096;-63
2021/04/10 04:49:20;;;;;;;50.90;29.27;;;;;;;5.97;90.86;98986.41;5014797;28;20030;-63
2021/04/10 04:51:46;;;;;;;57.83;32.47;;;;;;;5.98;90.83;98981.88;5012987;28;20045;-63
2021/04/10 04:54:11;;;;;;;50.88;29.08;;;;;;;6.08;90.84;98987.50;5013776;28;20099;-64
2021/04/10 04:56:37;;;;;;;55.85;30.20;;;;;;;6.08;90.68;98981.38;5014233;28;20054;-64
2021/04/10 04:59:02;;;;;;;52.75;29.98;;;;;;;6.03;91.07;98979.38;5014771;28;20045;-64
2021/04/10 05:01:28;;;;;;;52.78;28.98;;;;;;;6.12;90.62;98990.56;5014229;28;20041;-64
2021/04/10 05:03:53;;;;;;;54.75;29.85;;;;;;;6.16;90.28;98986.41;5014558;28;20033;-64
2021/04/10 05:06:19;;;;;;;50.20;29.17;;;;;;;6.19;90.25;98994.78;5014231;28;20133;-64
2021/04/10 05:08:44;;;;;;;50.45;28.40;;;;;;;6.21;90.08;98995.38;5014845;28;20358;-64
2021/04/10 05:11:09;;;;;;;53.45;30.83;;;;;;;6.19;89.85;98993.97;5013990;28;20551;-64
2021/04/10 05:13:35;;;;;;;48.85;28.20;;;;;;;6.26;89.34;99000.88;5013206;28;20030;-64
2021/04/10 05:16:00;;;;;;;54.85;30.77;;;;;;;6.11;90.13;98996.91;5014036;28;20054;-64
2021/04/10 05:18:26;;;;;;;48.20;29.20;;;;;;;6.15;90.21;98998.09;5014375;28;20026;-63
2021/04/10 05:20:51;;;;;;;48.30;27.13;;;;;;;6.13;89.55;99000.97;5013867;28;20484;-63
2021/04/10 05:23:24;;;;;;;46.03;26.95;;;;;;;6.25;89.68;99009.88;5014124;28;20034;-63
2021/04/10 05:25:50;;;;;;;48.15;29.13;;;;;;;6.35;89.97;99009.38;5013689;28;20046;-64
2021/04/10 05:28:16;;;;;;;46.55;27.75;;;;;;;6.48;88.93;99008.41;5014148;28;20091;-63
2021/04/10 05:30:41;;;;;;;45.35;26.30;;;;;;;6.59;88.55;99020.19;5013644;28;20049;-63
2021/04/10 05:33:07;;;;;;;47.38;28.48;;;;;;;6.53;89.17;99018.41;5012741;28;20032;-64
2021/04/10 05:35:32;;;;;;;49.33;29.35;;;;;;;6.55;89.15;99021.66;5012928;28;20045;-64
2021/04/10 05:37:58;;;;;;;44.35;27.70;;;;;;;6.53;88.98;99026.41;5013925;28;20030;-63
2021/04/10 05:40:23;;;;;;;43.30;24.73;;;;;;;6.53;88.84;99032.53;5013530;28;20125;-63
2021/04/10 05:42:49;;;;;;;42.17;26.98;;;;;;;6.59;87.90;99037.00;5013983;28;20429;-63
2021/04/10 05:45:14;;;;;;;45.03;26.88;;;;;;;6.62;88.13;99031.22;5011725;28;20400;-63
2021/04/10 05:47:40;;;;;;;44.33;27.25;;;;;;;6.43;89.01;99021.56;5013942;28;20044;-63
2021/04/10 05:50:06;;;;;;;40.80;23.50;;;;;;;6.50;87.91;99032.97;5013260;28;20053;-63
2021/04/10 05:52:32;;;;;;;43.00;25.45;;;;;;;6.52;87.96;99041.56;5012538;28;20464;-63
2021/04/10 05:54:57;;;;;;;46.65;26.60;;;;;;;6.46;88.61;99045.94;5013616;28;20029;-63
2021/04/10 05:57:23;;;;;;;48.00;30.50;;;;;;;6.68;88.20;99045.47;5013210;28;20060;-63
2021/04/10 05:59:48;;;;;;;49.45;28.13;;;;;;;6.57;87.81;99048.91;5013710;28;20030;-63
2021/04/10 06:02:14;;;;;;;45.60;26.08;;;;;;;6.43;88.36;99048.19;5012816;28;20109;-63
2021/04/10 06:04:39;;;;;;;43.50;27.08;;;;;;;6.47;88.27;99046.75;4995904;28;20046;-63
2021/04/10 06:07:05;;;;;;;45.72;25.75;;;;;;;6.57;88.22;99049.72;5011943;28;20038;-63
2021/04/10 06:09:30;;;;;;;46.95;25.38;;;;;;;6.53;88.27;99053.84;5013454;28;20370;-63
2021/04/10 06:11:55;;;;;;;43.75;26.40;;;;;;;6.75;87.86;99056.88;5011552;28;20058;-63
2021/04/10 06:14:22;;;;;;;40.05;25.05;;;;;;;6.80;87.90;99049.03;5012774;28;20026;-63
2021/04/10 06:16:48;;;;;;;43.50;22.77;;;;;;;6.86;87.29;99056.16;4993306;28;20042;-64
2021/04/10 06:19:13;;;;;;;43.45;24.08;;;;;;;6.91;87.23;99050.13;4993853;28;20050;-63
2021/04/10 06:21:39;;;;;;;44.45;25.23;;;;;;;6.80;87.68;99053.56;4993315;28;20057;-63
2021/04/10 06:24:05;;;;;;;42.55;23.35;;;;;;;6.72;87.81;99059.19;4993743;28;20053;-64
2021/04/10 06:26:30;;;;;;;42.20;24.55;;;;;;;6.78;87.35;99052.97;4993227;28;20053;-63
2021/04/10 06:28:56;;;;;;;37.30;24.63;;;;;;;6.87;87.69;99056.97;4992278;28;20455;-63
2021/04/10 06:31:21;;;;;;;42.55;24.50;;;;;;;6.82;87.92;99052.31;4993168;28;20114;-63
2021/04/10 06:33:46;;;;;;;40.13;25.08;;;;;;;6.77;87.26;99060.16;4993442;28;20030;-63
2021/04/10 06:36:12;;;;;;;43.50;25.25;;;;;;;6.94;87.44;99060.38;4992948;28;20374;-63
2021/04/10 06:38:37;;;;;;;42.08;25.23;;;;;;;6.97;87.01;99054.59;4993381;28;20035;-63
2021/04/10 06:41:04;;;;;;;43.17;24.85;;;;;;;7.02;87.34;99061.94;4993036;28;20031;-63
2021/04/10 06:43:30;;;;;;;40.00;22.83;;;;;;;6.97;86.67;99057.25;4992166;28;20484;-63
2021/04/10 06:45:56;;;;;;;43.33;24.92;;;;;;;6.99;87.07;99063.19;5008118;28;20034;-63
2021/04/10 06:48:22;;;;;;;42.33;25.38;;;;;;;7.21;87.46;99060.03;4991994;28;20058;-63
2021/04/10 06:50:47;;;;;;;35.15;23.48;;;;;;;7.39;86.57;99060.03;4991824;28;20046;-64
2021/04/10 06:53:14;;;;;;;36.25;22.25;;;;;;;7.57;84.78;99067.97;4992008;28;20026;-64
2021/04/10 06:55:43;;;;;;;37.35;22.35;;;;;;;7.35;86.23;99066.84;4993053;28;20057;-63
2021/04/10 06:58:09;;;;;;;37.13;22.55;;;;;;;7.36;86.26;99071.13;4993338;28;20069;-64
2021/04/10 07:00:34;;;;;;;37.67;22.02;;;;;;;7.45;85.48;99068.97;4991306;28;20042;-63
2021/04/10 07:03:01;;;;;;;33.30;22.05;;;;;;;7.61;84.36;99070.19;5008018;28;20023;-63
2021/04/10 07:05:27;;;;;;;32.92;22.00;;;;;;;7.71;84.12;99073.09;4992481;28;20046;-63
2021/04/10 07:07:53;;;;;;;37.72;22.65;;;;;;;7.68;84.09;99086.91;4993072;28;20026;-63
2021/04/10 07:10:19;;;;;;;34.95;21.92;;;;;;;7.67;84.22;99075.44;4991225;28;20085;-63
2021/04/10 07:12:45;;;;;;;35.25;23.08;;;;;;;7.82;84.29;99072.34;4992979;28;20145;-63
2021/04/10 07:15:11;;;;;;;44.70;25.80;;;;;;;8.13;85.10;99076.56;4992732;28;20031;-63
2021/04/10 07:17:37;;;;;;;37.58;25.63;;;;;;;8.14;85.80;99080.06;4992882;28;20389;-64
2021/04/10 07:20:24;;;;;;;45.15;28.50;;;;;;;8.37;84.57;99080.09;4992831;28;20026;-64
2021/04/10 07:23:13;;;;;;;35.10;23.25;;;;;;;8.24;84.29;99082.97;4992974;28;20512;-64
2021/04/10 07:25:40;;;;;;;34.90;23.10;;;;;;;8.09;85.23;99087.97;5007466;28;20493;-63
2021/04/10 07:28:25;;;;;;;36.80;23.92;;;;;;;8.08;86.42;99087.13;4993203;28;20032;-64
2021/04/10 07:30:58;;;;;;;34.13;22.67;;;;;;;8.06;86.10;99093.72;4992757;28;20416;-64
2021/04/10 07:33:24;;;;;;;38.60;22.92;;;;;;;7.97;86.69;99096.75;4993301;28;20469;-64
2021/04/10 07:35:50;;;;;;;37.53;23.95;;;;;;;8.05;85.45;99100.13;5004744;28;20045;-64
2021/04/10 07:38:28;;;;;;;35.67;24.17;;;;;;;8.05;85.70;99102.78;4995153;28;20052;-64
2021/04/10 07:40:54;;;;;;;35.67;24.38;;;;;;;8.04;85.60;99095.81;5012513;28;20046;-64
2021/04/10 07:43:29;;;;;;;36.17;24.73;;;;;;;8.06;85.65;99099.06;4995378;28;20030;-64
2021/04/10 07:46:22;;;;;;;37.28;24.30;;;;;;;8.12;85.50;99092.81;5012361;28;20034;-64
2021/04/10 07:49:03;;;;;;;36.22;24.25;;;;;;;8.23;85.46;99100.03;5007380;28;20034;-63
2021/04/10 07:51:30;;;;;;;39.92;24.73;;;;;;;8.15;85.11;99093.16;5012051;28;20034;-62
2021/04/10 07:53:56;;;;;;;42.60;24.20;;;;;;;8.19;84.35;99098.88;5012356;28;20100;-64
2021/04/10 07:56:21;;;;;;;39.47;24.42;;;;;;;8.01;84.81;99097.09;5011795;28;20419;-63
2021/04/10 07:58:47;;;;;;;39.78;24.15;;;;;;;8.12;85.81;99103.50;5013592;28;20029;-63
2021/04/10 08:01:13;;;;;;;41.03;25.42;;;;;;;8.10;86.63;99100.25;5014150;28;20042;-63
2021/04/10 08:03:43;;;;;;;42.92;25.77;;;;;;;8.11;86.74;99107.19;5015660;28;20026;-64
2021/04/10 08:06:08;;;;;;;38.28;25.90;;;;;;;8.39;85.72;99109.25;5014105;28;20089;-63
2021/04/10 08:08:55;;;;;;;38.03;24.42;;;;;;;8.36;86.11;99112.34;5015664;28;20030;-63
2021/04/10 08:11:33;;;;;;;41.33;24.55;;;;;;;8.30;86.27;99111.41;5013668;28;20117;-64
2021/04/10 08:14:05;;;;;;;43.22;24.42;;;;;;;8.47;86.00;99114.25;5014414;28;20033;-64
2021/04/10 08:16:31;;;;;;;40.67;23.65;;;;;;;8.67;84.99;99116.59;4997726;28;20058;-64
2021/04/10 08:18:58;;;;;;;33.38;22.25;;;;;;;8.76;84.81;99112.53;5015399;28;20022;-64
2021/04/10 08:21:29;;;;;;;32.50;21.23;;;;;;;8.64;84.33;99111.72;5013867;28;20034;-64
2021/04/10 08:23:56;;;;;;;29.63;19.38;;;;;;;8.55;81.85;99113.09;5015615;28;20101;-64
2021/04/10 08:26:22;;;;;;;35.78;21.52;;;;;;;8.71;83.76;99117.75;5014896;28;20037;-65
2021/04/10 08:28:47;;;;;;;33.13;21.35;;;;;;;8.77;84.49;99116.00;5014433;28;20535;-63
2021/04/10 08:31:13;;;;;;;36.30;21.85;;;;;;;8.55;84.85;99113.91;5013807;28;20038;-64
2021/04/10 08:33:38;;;;;;;31.60;20.15;;;;;;;8.50;83.86;99115.66;5015321;28;20465;-63
2021/04/10 08:36:12;;;;;;;30.98;20.45;;;;;;;8.33;83.18;99120.81;5014847;28;20069;-63
2021/04/10 08:38:39;;;;;;;28.50;19.60;;;;;;;8.27;83.30;99119.91;4997735;28;20057;-63
2021/04/10 08:41:06;;;;;;;27.60;18.88;;;;;;;8.32;83.73;99117.34;5014969;28;20038;-64
2021/04/10 08:43:32;;;;;;;30.98;20.65;;;;;;;8.38;83.82;99119.09;5015530;28;20026;-63
2021/04/10 08:45:58;;;;;;;32.35;19.60;;;;;;;8.48;82.21;99120.41;5013648;28;20080;-63
2021/04/10 08:48:24;;;;;;;27.08;17.42;;;;;;;8.23;81.73;99118.72;5015134;28;20054;-63
2021/04/10 08:50:51;;;;;;;28.35;17.45;;;;;;;8.56;81.91;99117.38;5013422;28;20048;-64
2021/04/10 08:53:39;;;;;;;23.80;14.98;;;;;;;8.54;79.32;99120.31;5014857;28;20092;-63
2021/04/10 08:56:08;;;;;;;21.38;13.80;;;;;;;8.21;79.59;99115.47;5013109;28;20038;-63
2021/04/10 08:58:35;;;;;;;21.83;14.30;;;;;;;8.19;79.29;99114.91;5014921;28;20499;-63
2021/04/10 09:01:02;;;;;;;22.73;15.57;;;;;;;8.40;79.59;99117.03;4997012;28;20558;-63
2021/04/10 09:03:46;;;;;;;26.48;14.07;;;;;;;8.63;79.03;99115.41;5014710;28;20030;-63
2021/04/10 09:06:32;;;;;;;20.63;14.23;;;;;;;8.68;78.25;99117.41;5014266;28;20070;-63
2021/04/10 09:09:18;;;;;;;22.48;15.25;;;;;;;8.90;76.85;99121.09;5006766;28;20038;-63
2021/04/10 09:11:49;;;;;;;21.25;12.85;;;;;;;8.82;76.27;99119.59;5006775;28;20507;-63
2021/04/10 09:14:45;;;;;;;21.42;12.88;;;;;;;8.74;77.29;99111.13;5013291;28;20030;-64
2021/04/10 09:17:10;;;;;;;21.30;12.30;;;;;;;8.41;77.35;99118.69;5014017;28;20128;-63
2021/04/10 09:19:35;;;;;;;26.30;13.85;;;;;;;8.37;77.62;99112.13;5014405;28;20063;-63
2021/04/10 09:22:01;;;;;;;19.98;13.40;;;;;;;8.43;76.71;99116.56;5013837;28;20034;-63
2021/04/10 09:24:45;;;;;;;18.27;12.57;;;;;;;8.68;75.72;99114.72;5014349;28;20026;-63
2021/04/10 09:27:24;;;;;;;17.38;12.32;;;;;;;8.62;77.59;99122.63;5013912;28;20049;-63
2021/04/10 09:30:00;;;;;;;24.92;12.85;;;;;;;8.86;74.21;99125.28;5012985;28;20026;-63
2021/04/10 09:32:39;;;;;;;20.00;12.27;;;;;;;8.64;73.43;99125.06;5013855;28;20515;-63
2021/04/10 09:35:15;;;;;;;18.55;11.68;;;;;;;8.48;74.32;99117.75;5013763;28;20036;-63
2021/04/10 09:37:41;;;;;;;19.13;12.80;;;;;;;8.33;75.94;99115.47;5012810;28;20064;-63
2021/04/10 09:40:09;;;;;;;18.05;12.07;;;;;;;8.61;76.93;99112.16;5013839;28;20053;-63
2021/04/10 09:42:34;;;;;;;17.58;13.10;;;;;;;8.64;77.81;99107.19;5013848;28;20018;-63
2021/04/10 09:45:14;;;;;;;20.50;13.77;;;;;;;8.77;76.51;99108.81;5014228;28;20393;-63
2021/04/10 09:47:52;;;;;;;24.33;14.53;;;;;;;8.85;77.56;99112.97;5012531;28;20118;-63
2021/04/10 09:50:18;;;;;;;22.83;16.15;;;;;;;8.45;79.11;99111.00;5013796;28;20034;-63
2021/04/10 09:52:43;;;;;;;24.13;14.65;;;;;;;8.58;80.92;99112.63;5012890;28;20014;-63
2021/04/10 09:55:10;;;;;;;22.10;14.40;;;;;;;8.65;79.46;99116.00;5013486;28;20487;-63
2021/04/10 09:57:35;;;;;;;21.73;12.63;;;;;;;8.81;75.58;99119.81;5013776;28;20108;-63
2021/04/10 10:00:01;;;;;;;17.35;12.38;;;;;;;8.83;76.04;99121.22;5013344;28;20366;-63
2021/04/10 10:02:29;;;;;;;20.02;13.30;;;;;;;8.77;76.71;99108.81;4996175;28;20108;-63
2021/04/10 10:04:55;;;;;;;20.23;13.10;;;;;;;8.60;76.92;99102.53;5012603;28;20140;-63
2021/04/10 10:07:23;;;;;;;21.58;12.88;;;;;;;8.79;77.73;99103.22;5012014;28;20042;-63
2021/04/10 10:10:08;;;;;;;20.73;12.80;;;;;;;8.93;77.88;99109.13;5012435;28;20029;-63
2021/04/10 10:12:33;;;;;;;18.73;12.98;;;;;;;9.24;77.23;99100.72;5012985;28;20050;-63
2021/04/10 10:14:59;;;;;;;17.75;12.05;;;;;;;9.32;76.39;99096.03;5012310;28;20022;-63
2021/04/10 10:17:28;;;;;;;17.20;12.07;;;;;;;9.24;76.75;99105.25;5013003;28;20390;-63
2021/04/10 10:20:13;;;;;;;20.10;12.15;;;;;;;8.89;75.77;99102.66;5012315;28;20037;-63
2021/04/10 10:22:39;;;;;;;18.35;12.98;;;;;;;8.83;78.60;99094.50;5013127;28;20034;-63
2021/04/10 10:25:05;;;;;;;18.83;11.75;;;;;;;8.65;78.48;99091.97;5012998;28;20057;-64
2021/04/10 10:27:46;;;;;;;17.23;11.73;;;;;;;8.41;80.00;99097.31;5013530;28;20044;-63
2021/04/10 10:30:19;;;;;;;16.80;11.95;;;;;;;8.49;80.16;99090.81;5012877;28;20518;-64
2021/04/10 10:32:48;;;;;;;20.70;13.35;;;;;;;8.39;78.97;99098.56;5013233;28;20057;-63
2021/04/10 10:35:17;;;;;;;19.20;11.82;;;;;;;8.58;80.21;99096.59;5011413;28;20045;-63
2021/04/10 10:37:49;;;;;;;19.00;12.85;;;;;;;8.47;80.50;99089.41;5011579;28;20030;-64
2021/04/10 10:40:22;;;;;;;19.27;11.75;;;;;;;8.42;81.18;99085.56;5012691;28;20026;-63
2021/04/10 10:43:01;;;;;;;17.50;13.02;;;;;;;8.33;80.79;99088.78;5013007;28;20021;-64
2021/04/10 10:45:40;;;;;;;19.15;12.55;;;;;;;8.38;81.84;99080.88;5012642;28;20115;-63
2021/04/10 10:48:26;;;;;;;21.98;13.18;;;;;;;8.52;81.65;99085.00;5013032;28;20100;-64
2021/04/10 10:50:53;;;;;;;22.13;12.52;;;;;;;8.28;82.04;99073.44;5012702;28;20499;-64
2021/04/10 10:53:21;;;;;;;21.73;11.73;;;;;;;8.31;82.29;99077.50;5013043;28;20037;-64
2021/04/10 10:55:57;;;;;;;19.55;13.27;;;;;;;8.15;82.20;99076.34;5011492;28;20112;-63
2021/04/10 10:58:23;;;;;;;19.55;13.38;;;;;;;8.13;82.30;99075.75;5011779;28;20061;-64
2021/04/10 11:00:48;;;;;;;18.48;13.32;;;;;;;8.18;81.39;99071.34;5011298;28;20034;-64
2021/04/10 11:03:23;;;;;;;18.75;13.48;;;;;;;8.42;83.07;99074.88;5011992;28;20026;-63
2021/04/10 11:05:51;;;;;;;21.15;12.18;;;;;;;8.56;82.28;99078.16;5012714;28;20038;-63
2021/04/10 11:08:17;;;;;;;18.10;12.52;;;;;;;8.48;82.95;99064.31;5012826;28;20041;-64
2021/04/10 11:10:43;;;;;;;18.13;12.23;;;;;;;8.33;82.67;99062.88;4994998;28;20514;-64
2021/04/10 11:13:12;;;;;;;19.42;12.35;;;;;;;8.20;81.74;99061.25;5011511;28;20123;-64
2021/04/10 11:15:38;;;;;;;18.02;12.93;;;;;;;8.35;82.12;99055.47;5011170;28;20038;-64
2021/04/10 11:18:04;;;;;;;17.67;12.75;;;;;;;8.58;83.13;99054.66;4995404;28;20033;-64
2021/04/10 11:20:33;;;;;;;20.45;13.43;;;;;;;8.66;82.19;99056.16;5012510;28;20044;-65
2021/04/10 11:23:05;;;;;;;18.10;12.93;;;;;;;8.57;82.86;99050.38;5012869;28;20033;-63
2021/04/10 11:25:50;;;;;;;18.40;12.35;;;;;;;8.21;83.45;99048.72;5012176;28;20038;-64
2021/04/10 11:28:29;;;;;;;15.90;12.45;;;;;;;8.05;83.67;99041.41;5011517;28;20041;-65
2021/04/10 11:31:02;;;;;;;20.17;12.73;;;;;;;8.09;84.36;99034.56;5011124;28;20041;-63